LGL83D ELLX-EIDW
Flight info
| Callsign | LGL83D |
|---|---|
| Flight time | 1h 51m |
| Altitude | 22000 |
| Route | LNO N852 TERLA L608 SASKI L179 LAM L10 BUZAD T420 WELIN N57 SAPCO Y53 WAL L10 PENIL M144 BAGSO |
| Aircraft | DH8D/M-SFDRYGI/H |
Departure
| Time | 2026-05-04 15:26 |
|---|---|
| Airport | Luxembourg-Findel International Airport (ELLX) |
Arrival
| Time | 2026-05-04 17:17 |
|---|---|
| Airport | Dublin Airport (EIDW) |
| Time | Latitude | Longitude | Altitude | Speed | Heading |
|---|---|---|---|---|---|
| 2026-05-04 15:01 | 49.63190 | 6.21477 | 1238 ft | 0 kts | 240° |
| 2026-05-04 15:15 | 49.63192 | 6.21481 | 1237 ft | 2 kts | 240° |
| 2026-05-04 15:15 | 49.63199 | 6.21501 | 1237 ft | 2 kts | 240° |
| 2026-05-04 15:16 | 49.63215 | 6.21536 | 1236 ft | 1 kts | 196° |
| 2026-05-04 15:16 | 49.63228 | 6.21533 | 1236 ft | 2 kts | 144° |
| 2026-05-04 15:16 | 49.63243 | 6.21517 | 1236 ft | 1 kts | 152° |
| 2026-05-04 15:17 | 49.63244 | 6.21516 | 1236 ft | 0 kts | 152° |
| 2026-05-04 15:19 | 49.63134 | 6.21613 | 1231 ft | 12 kts | 150° |
| 2026-05-04 15:20 | 49.63070 | 6.21614 | 1229 ft | 7 kts | 230° |
| 2026-05-04 15:20 | 49.63029 | 6.21492 | 1229 ft | 17 kts | 244° |
| 2026-05-04 15:20 | 49.62969 | 6.21301 | 1235 ft | 21 kts | 244° |
| 2026-05-04 15:20 | 49.62906 | 6.21095 | 1235 ft | 20 kts | 245° |
| 2026-05-04 15:21 | 49.62848 | 6.20907 | 1237 ft | 18 kts | 244° |
| 2026-05-04 15:21 | 49.62784 | 6.20735 | 1236 ft | 18 kts | 227° |
| 2026-05-04 15:21 | 49.62585 | 6.20443 | 1228 ft | 21 kts | 229° |
| 2026-05-04 15:22 | 49.62490 | 6.20259 | 1222 ft | 22 kts | 237° |
| 2026-05-04 15:22 | 49.62409 | 6.20045 | 1213 ft | 22 kts | 240° |
| 2026-05-04 15:22 | 49.62255 | 6.19630 | 1190 ft | 22 kts | 239° |
| 2026-05-04 15:23 | 49.62179 | 6.19428 | 1180 ft | 22 kts | 239° |
| 2026-05-04 15:23 | 49.62096 | 6.19203 | 1170 ft | 24 kts | 240° |
| 2026-05-04 15:23 | 49.62017 | 6.18990 | 1161 ft | 20 kts | 239° |
| 2026-05-04 15:23 | 49.61955 | 6.18833 | 1155 ft | 15 kts | 233° |
| 2026-05-04 15:24 | 49.61790 | 6.18740 | 1151 ft | 11 kts | 139° |
| 2026-05-04 15:24 | 49.61865 | 6.19058 | 1164 ft | 60 kts | 60° |
| 2026-05-04 15:25 | 49.62194 | 6.19944 | 1205 ft | 126 kts | 60° |
| 2026-05-04 15:25 | 49.62698 | 6.21302 | 1387 ft | 151 kts | 63° |
| 2026-05-04 15:25 | 49.63211 | 6.22749 | 1804 ft | 159 kts | 64° |
| 2026-05-04 15:26 | 49.64256 | 6.25797 | 2766 ft | 172 kts | 62° |
| 2026-05-04 15:26 | 49.64936 | 6.27454 | 3017 ft | 193 kts | 60° |
| 2026-05-04 15:26 | 49.66433 | 6.31058 | 3951 ft | 209 kts | 60° |
| 2026-05-04 15:27 | 49.67175 | 6.32992 | 4503 ft | 214 kts | 64° |
| 2026-05-04 15:27 | 49.68676 | 6.37066 | 5640 ft | 224 kts | 56° |
| 2026-05-04 15:28 | 49.71580 | 6.38138 | 6573 ft | 238 kts | 329° |
| 2026-05-04 15:28 | 49.72780 | 6.36469 | 7106 ft | 234 kts | 305° |
| 2026-05-04 15:28 | 49.74924 | 6.32568 | 8252 ft | 240 kts | 305° |
| 2026-05-04 15:29 | 49.76020 | 6.30605 | 8739 ft | 247 kts | 306° |
| 2026-05-04 15:30 | 49.80670 | 6.22464 | 11063 ft | 252 kts | 306° |
| 2026-05-04 15:30 | 49.84105 | 6.16519 | 12812 ft | 247 kts | 306° |
| 2026-05-04 15:31 | 49.86568 | 6.12739 | 13748 ft | 256 kts | 327° |
| 2026-05-04 15:31 | 49.88231 | 6.11681 | 14206 ft | 260 kts | 336° |
| 2026-05-04 15:32 | 49.93438 | 6.08756 | 15418 ft | 267 kts | 336° |
| 2026-05-04 15:32 | 49.96927 | 6.06778 | 16248 ft | 268 kts | 336° |
| 2026-05-04 15:33 | 50.00433 | 6.04779 | 17062 ft | 268 kts | 336° |
| 2026-05-04 15:34 | 50.05719 | 6.01749 | 18058 ft | 275 kts | 336° |
| 2026-05-04 15:34 | 50.07504 | 6.00723 | 18377 ft | 276 kts | 336° |
| 2026-05-04 15:34 | 50.11119 | 5.98645 | 19018 ft | 279 kts | 336° |
| 2026-05-04 15:35 | 50.14760 | 5.96549 | 19636 ft | 280 kts | 335° |
| 2026-05-04 15:35 | 50.16592 | 5.95492 | 19938 ft | 281 kts | 335° |
| 2026-05-04 15:35 | 50.18431 | 5.94430 | 20226 ft | 281 kts | 335° |
| 2026-05-04 15:36 | 50.22147 | 5.92279 | 20622 ft | 288 kts | 335° |
| 2026-05-04 15:36 | 50.24045 | 5.91179 | 20842 ft | 290 kts | 335° |
| 2026-05-04 15:36 | 50.25928 | 5.90088 | 21064 ft | 291 kts | 335° |
| 2026-05-04 15:37 | 50.27829 | 5.88985 | 21288 ft | 292 kts | 335° |
| 2026-05-04 15:37 | 50.29732 | 5.87881 | 21512 ft | 292 kts | 335° |
| 2026-05-04 15:37 | 50.31649 | 5.86767 | 21732 ft | 293 kts | 335° |
| 2026-05-04 15:37 | 50.33550 | 5.85661 | 21923 ft | 295 kts | 335° |
| 2026-05-04 15:38 | 50.35495 | 5.84527 | 21981 ft | 302 kts | 335° |
| 2026-05-04 15:38 | 50.37475 | 5.83371 | 21997 ft | 310 kts | 335° |
| 2026-05-04 15:38 | 50.39545 | 5.82163 | 22001 ft | 318 kts | 336° |
| 2026-05-04 15:38 | 50.41637 | 5.80943 | 22001 ft | 326 kts | 336° |
| 2026-05-04 15:39 | 50.43774 | 5.79696 | 22000 ft | 333 kts | 336° |
| 2026-05-04 15:39 | 50.45958 | 5.78420 | 21999 ft | 339 kts | 336° |
| 2026-05-04 15:39 | 50.50465 | 5.75782 | 21998 ft | 350 kts | 336° |
| 2026-05-04 15:40 | 50.52759 | 5.74438 | 21996 ft | 354 kts | 336° |
| 2026-05-04 15:40 | 50.55067 | 5.73083 | 21995 ft | 357 kts | 336° |
| 2026-05-04 15:40 | 50.57394 | 5.71716 | 21995 ft | 360 kts | 336° |
| 2026-05-04 15:40 | 50.59739 | 5.70369 | 21994 ft | 362 kts | 338° |
| 2026-05-04 15:41 | 50.62158 | 5.69225 | 21995 ft | 365 kts | 341° |
| 2026-05-04 15:41 | 50.64592 | 5.68131 | 21994 ft | 366 kts | 341° |
| 2026-05-04 15:41 | 50.66884 | 5.66510 | 21969 ft | 359 kts | 321° |
| 2026-05-04 15:41 | 50.68481 | 5.63592 | 21987 ft | 347 kts | 295° |
| 2026-05-04 15:42 | 50.69374 | 5.60094 | 21996 ft | 345 kts | 286° |
| 2026-05-04 15:42 | 50.70154 | 5.56517 | 21996 ft | 346 kts | 285° |
| 2026-05-04 15:42 | 50.70911 | 5.52934 | 21996 ft | 346 kts | 285° |
| 2026-05-04 15:42 | 50.71666 | 5.49305 | 21995 ft | 347 kts | 285° |
| 2026-05-04 15:43 | 50.72411 | 5.45685 | 21994 ft | 348 kts | 285° |
| 2026-05-04 15:43 | 50.73155 | 5.42042 | 21993 ft | 348 kts | 285° |
| 2026-05-04 15:43 | 50.73896 | 5.38388 | 21993 ft | 348 kts | 285° |
| 2026-05-04 15:43 | 50.74638 | 5.34710 | 21992 ft | 348 kts | 284° |
| 2026-05-04 15:44 | 50.75369 | 5.31072 | 21992 ft | 347 kts | 284° |
| 2026-05-04 15:44 | 50.76095 | 5.27445 | 21992 ft | 347 kts | 284° |
| 2026-05-04 15:44 | 50.76820 | 5.23811 | 21992 ft | 346 kts | 284° |
| 2026-05-04 15:44 | 50.77536 | 5.20212 | 21992 ft | 345 kts | 284° |
| 2026-05-04 15:45 | 50.78258 | 5.16569 | 21992 ft | 345 kts | 284° |
| 2026-05-04 15:45 | 50.78971 | 5.12967 | 21992 ft | 344 kts | 284° |
| 2026-05-04 15:45 | 50.79680 | 5.09375 | 21992 ft | 344 kts | 284° |
| 2026-05-04 15:45 | 50.80400 | 5.05719 | 21993 ft | 344 kts | 284° |
| 2026-05-04 15:46 | 50.81099 | 5.02150 | 21993 ft | 344 kts | 284° |
| 2026-05-04 15:46 | 50.81795 | 4.98512 | 21989 ft | 343 kts | 284° |
| 2026-05-04 15:46 | 50.82491 | 4.94856 | 21985 ft | 343 kts | 284° |
| 2026-05-04 15:46 | 50.83176 | 4.91252 | 21980 ft | 343 kts | 284° |
| 2026-05-04 15:47 | 50.83867 | 4.87615 | 21977 ft | 343 kts | 284° |
| 2026-05-04 15:47 | 50.84550 | 4.84015 | 21973 ft | 343 kts | 284° |
| 2026-05-04 15:47 | 50.85232 | 4.80413 | 21969 ft | 342 kts | 284° |
| 2026-05-04 15:47 | 50.85909 | 4.76828 | 21966 ft | 342 kts | 284° |
| 2026-05-04 15:48 | 50.86591 | 4.73216 | 21965 ft | 342 kts | 284° |
| 2026-05-04 15:48 | 50.87275 | 4.69581 | 21965 ft | 341 kts | 284° |
| 2026-05-04 15:48 | 50.88622 | 4.62408 | 21965 ft | 341 kts | 284° |
| 2026-05-04 15:49 | 50.89299 | 4.58797 | 21965 ft | 341 kts | 284° |
| 2026-05-04 15:49 | 50.89977 | 4.55188 | 21964 ft | 341 kts | 285° |
| 2026-05-04 15:49 | 50.90939 | 4.51782 | 21972 ft | 343 kts | 297° |
| 2026-05-04 15:49 | 50.92194 | 4.48515 | 21965 ft | 344 kts | 299° |
| 2026-05-04 15:50 | 50.93444 | 4.45302 | 21964 ft | 344 kts | 299° |
| 2026-05-04 15:50 | 50.94705 | 4.42056 | 21965 ft | 344 kts | 299° |
| 2026-05-04 15:50 | 50.95960 | 4.38814 | 21965 ft | 344 kts | 299° |
| 2026-05-04 15:50 | 50.97207 | 4.35579 | 21965 ft | 344 kts | 299° |
| 2026-05-04 15:51 | 50.98450 | 4.32347 | 21966 ft | 344 kts | 298° |
| 2026-05-04 15:51 | 50.99697 | 4.29095 | 21966 ft | 345 kts | 298° |
| 2026-05-04 15:51 | 51.00943 | 4.25838 | 21966 ft | 345 kts | 298° |
| 2026-05-04 15:51 | 51.02188 | 4.22580 | 21966 ft | 345 kts | 298° |
| 2026-05-04 15:52 | 51.03425 | 4.19334 | 21966 ft | 345 kts | 298° |
| 2026-05-04 15:52 | 51.04678 | 4.16043 | 21966 ft | 344 kts | 298° |
| 2026-05-04 15:52 | 51.05900 | 4.12828 | 21966 ft | 344 kts | 298° |
| 2026-05-04 15:52 | 51.07149 | 4.09537 | 21966 ft | 344 kts | 298° |
| 2026-05-04 15:53 | 51.08379 | 4.06290 | 21966 ft | 344 kts | 298° |
| 2026-05-04 15:53 | 51.09631 | 4.02983 | 21969 ft | 344 kts | 298° |
| 2026-05-04 15:53 | 51.10866 | 3.99715 | 21972 ft | 344 kts | 298° |
| 2026-05-04 15:53 | 51.12088 | 3.96478 | 21976 ft | 344 kts | 298° |
| 2026-05-04 15:54 | 51.13329 | 3.93187 | 21980 ft | 344 kts | 298° |
| 2026-05-04 15:54 | 51.14542 | 3.89965 | 21984 ft | 344 kts | 298° |
| 2026-05-04 15:54 | 51.15771 | 3.86695 | 21987 ft | 344 kts | 298° |
| 2026-05-04 15:54 | 51.17007 | 3.83403 | 21991 ft | 344 kts | 298° |
| 2026-05-04 15:55 | 51.18222 | 3.80162 | 21993 ft | 344 kts | 298° |
| 2026-05-04 15:55 | 51.19449 | 3.76888 | 21993 ft | 344 kts | 298° |
| 2026-05-04 15:55 | 51.20689 | 3.73571 | 21993 ft | 344 kts | 298° |
| 2026-05-04 15:55 | 51.21912 | 3.70296 | 21993 ft | 344 kts | 298° |
| 2026-05-04 15:56 | 51.23136 | 3.67017 | 21993 ft | 345 kts | 298° |
| 2026-05-04 15:56 | 51.24351 | 3.63754 | 21993 ft | 345 kts | 298° |
| 2026-05-04 15:56 | 51.25583 | 3.60444 | 21993 ft | 345 kts | 298° |
| 2026-05-04 15:56 | 51.26801 | 3.57164 | 21993 ft | 345 kts | 298° |
| 2026-05-04 15:57 | 51.28022 | 3.53871 | 21993 ft | 345 kts | 298° |
| 2026-05-04 15:57 | 51.29244 | 3.50574 | 21993 ft | 345 kts | 298° |
| 2026-05-04 15:57 | 51.30463 | 3.47280 | 21993 ft | 345 kts | 298° |
| 2026-05-04 15:57 | 51.31682 | 3.43980 | 21993 ft | 345 kts | 298° |
| 2026-05-04 15:58 | 51.32909 | 3.40655 | 21993 ft | 345 kts | 298° |
| 2026-05-04 15:58 | 51.34117 | 3.37378 | 21993 ft | 345 kts | 298° |
| 2026-05-04 15:58 | 51.35210 | 3.33972 | 21991 ft | 342 kts | 290° |
| 2026-05-04 15:58 | 51.36068 | 3.30417 | 21991 ft | 342 kts | 288° |
| 2026-05-04 15:59 | 51.36904 | 3.26853 | 21992 ft | 342 kts | 288° |
| 2026-05-04 15:59 | 51.37739 | 3.23288 | 21992 ft | 342 kts | 288° |
| 2026-05-04 15:59 | 51.38572 | 3.19737 | 21993 ft | 342 kts | 288° |
| 2026-05-04 15:59 | 51.39407 | 3.16178 | 21993 ft | 343 kts | 288° |
| 2026-05-04 16:00 | 51.40256 | 3.12562 | 21993 ft | 343 kts | 288° |
| 2026-05-04 16:00 | 51.41093 | 3.08997 | 21993 ft | 343 kts | 288° |
| 2026-05-04 16:00 | 51.41930 | 3.05431 | 21993 ft | 343 kts | 288° |
| 2026-05-04 16:00 | 51.42774 | 3.01834 | 21993 ft | 343 kts | 288° |
| 2026-05-04 16:01 | 51.43607 | 2.98284 | 21993 ft | 343 kts | 288° |
| 2026-05-04 16:01 | 51.44454 | 2.94666 | 21992 ft | 343 kts | 288° |
| 2026-05-04 16:01 | 51.45287 | 2.91102 | 21992 ft | 342 kts | 288° |
| 2026-05-04 16:01 | 51.46116 | 2.87552 | 21992 ft | 342 kts | 288° |
| 2026-05-04 16:02 | 51.46944 | 2.83996 | 21992 ft | 341 kts | 288° |
| 2026-05-04 16:02 | 51.47781 | 2.80403 | 21992 ft | 341 kts | 288° |
| 2026-05-04 16:02 | 51.49437 | 2.73267 | 21993 ft | 340 kts | 288° |
| 2026-05-04 16:03 | 51.50257 | 2.69730 | 21993 ft | 340 kts | 288° |
| 2026-05-04 16:03 | 51.51081 | 2.66166 | 21993 ft | 340 kts | 288° |
| 2026-05-04 16:03 | 51.51895 | 2.62639 | 21993 ft | 340 kts | 288° |
| 2026-05-04 16:03 | 51.52716 | 2.59074 | 21993 ft | 340 kts | 288° |
| 2026-05-04 16:04 | 51.53535 | 2.55517 | 21994 ft | 339 kts | 288° |
| 2026-05-04 16:04 | 51.54932 | 2.48337 | 21993 ft | 335 kts | 276° |
| 2026-05-04 16:04 | 51.55143 | 2.44608 | 21994 ft | 335 kts | 273° |
| 2026-05-04 16:05 | 51.55323 | 2.40883 | 21996 ft | 335 kts | 273° |
| 2026-05-04 16:05 | 51.55502 | 2.37139 | 21998 ft | 335 kts | 273° |
| 2026-05-04 16:05 | 51.55861 | 2.29698 | 21999 ft | 335 kts | 272° |
| 2026-05-04 16:06 | 51.56043 | 2.25957 | 22000 ft | 335 kts | 272° |
| 2026-05-04 16:06 | 51.56588 | 2.14724 | 22000 ft | 335 kts | 272° |
| 2026-05-04 16:07 | 51.56768 | 2.11005 | 22003 ft | 335 kts | 272° |
| 2026-05-04 16:07 | 51.57303 | 1.99819 | 22012 ft | 335 kts | 272° |
| 2026-05-04 16:08 | 51.57480 | 1.96073 | 22015 ft | 335 kts | 272° |
| 2026-05-04 16:08 | 51.58001 | 1.84882 | 22020 ft | 335 kts | 272° |
| 2026-05-04 16:09 | 51.58345 | 1.77371 | 22020 ft | 335 kts | 272° |
| 2026-05-04 16:09 | 51.58681 | 1.69937 | 22019 ft | 335 kts | 272° |
| 2026-05-04 16:10 | 51.59016 | 1.62433 | 22020 ft | 335 kts | 272° |
| 2026-05-04 16:11 | 51.59507 | 1.51206 | 22020 ft | 336 kts | 272° |
| 2026-05-04 16:11 | 51.59667 | 1.47492 | 22020 ft | 336 kts | 272° |
| 2026-05-04 16:12 | 51.60147 | 1.36210 | 22020 ft | 336 kts | 272° |
| 2026-05-04 16:12 | 51.60614 | 1.24957 | 22020 ft | 337 kts | 271° |
| 2026-05-04 16:13 | 51.60922 | 1.17422 | 22020 ft | 337 kts | 271° |
| 2026-05-04 16:13 | 51.61222 | 1.09932 | 22025 ft | 337 kts | 271° |
| 2026-05-04 16:14 | 51.61518 | 1.02432 | 22030 ft | 337 kts | 271° |
| 2026-05-04 16:14 | 51.61811 | 0.94884 | 22035 ft | 337 kts | 271° |
| 2026-05-04 16:15 | 51.62240 | 0.83585 | 22037 ft | 337 kts | 271° |
| 2026-05-04 16:16 | 51.62520 | 0.76050 | 22037 ft | 337 kts | 271° |
| 2026-05-04 16:16 | 51.62930 | 0.64770 | 22039 ft | 337 kts | 271° |
| 2026-05-04 16:17 | 51.63198 | 0.57252 | 22038 ft | 337 kts | 271° |
| 2026-05-04 16:18 | 51.63590 | 0.45963 | 22039 ft | 336 kts | 271° |
| 2026-05-04 16:18 | 51.63719 | 0.42203 | 22039 ft | 336 kts | 271° |
| 2026-05-04 16:19 | 51.64095 | 0.30943 | 22040 ft | 335 kts | 271° |
| 2026-05-04 16:19 | 51.64339 | 0.23491 | 22040 ft | 335 kts | 271° |
| 2026-05-04 16:20 | 51.65603 | 0.12557 | 22070 ft | 339 kts | 298° |
| 2026-05-04 16:20 | 51.68176 | 0.06163 | 22046 ft | 341 kts | 300° |
| 2026-05-04 16:21 | 51.72055 | -0.03441 | 22042 ft | 342 kts | 300° |
| 2026-05-04 16:22 | 51.74668 | -0.09959 | 22048 ft | 347 kts | 300° |
| 2026-05-04 16:22 | 51.78828 | -0.19656 | 22048 ft | 353 kts | 303° |
| 2026-05-04 16:23 | 51.83099 | -0.29447 | 22047 ft | 356 kts | 303° |
| 2026-05-04 16:24 | 51.88770 | -0.42560 | 22047 ft | 358 kts | 303° |
| 2026-05-04 16:25 | 51.91618 | -0.49180 | 22047 ft | 358 kts | 303° |
| 2026-05-04 16:26 | 51.98918 | -0.59919 | 22050 ft | 363 kts | 328° |
| 2026-05-04 16:26 | 52.05432 | -0.66248 | 22047 ft | 361 kts | 328° |
| 2026-05-04 16:27 | 52.09701 | -0.70425 | 22046 ft | 360 kts | 328° |
| 2026-05-04 16:28 | 52.16112 | -0.76729 | 22046 ft | 359 kts | 327° |
| 2026-05-04 16:28 | 52.22529 | -0.83070 | 22047 ft | 358 kts | 327° |
| 2026-05-04 16:29 | 52.29819 | -0.93845 | 22049 ft | 355 kts | 312° |
| 2026-05-04 16:30 | 52.34919 | -1.02644 | 22047 ft | 355 kts | 312° |
| 2026-05-04 16:31 | 52.38320 | -1.08510 | 22047 ft | 355 kts | 312° |
| 2026-05-04 16:31 | 52.43428 | -1.17328 | 22047 ft | 356 kts | 312° |
| 2026-05-04 16:32 | 52.48527 | -1.26156 | 22047 ft | 356 kts | 312° |
| 2026-05-04 16:33 | 52.51923 | -1.32051 | 22047 ft | 356 kts | 312° |
| 2026-05-04 16:33 | 52.55325 | -1.37972 | 22047 ft | 355 kts | 312° |
| 2026-05-04 16:34 | 52.58720 | -1.43909 | 22047 ft | 355 kts | 312° |
| 2026-05-04 16:34 | 52.60413 | -1.46876 | 22047 ft | 356 kts | 312° |
| 2026-05-04 16:35 | 52.65501 | -1.55809 | 22047 ft | 356 kts | 312° |
| 2026-05-04 16:35 | 52.70581 | -1.64760 | 22047 ft | 356 kts | 312° |
| 2026-05-04 16:36 | 52.72274 | -1.67750 | 22047 ft | 356 kts | 311° |
| 2026-05-04 16:36 | 52.75631 | -1.73760 | 22045 ft | 355 kts | 309° |
| 2026-05-04 16:37 | 52.78708 | -1.80090 | 22048 ft | 355 kts | 307° |
| 2026-05-04 16:37 | 52.80248 | -1.83284 | 22047 ft | 355 kts | 307° |
| 2026-05-04 16:37 | 52.83336 | -1.89678 | 22047 ft | 355 kts | 307° |
| 2026-05-04 16:38 | 52.86432 | -1.96079 | 22047 ft | 354 kts | 308° |
| 2026-05-04 16:39 | 52.91043 | -2.05620 | 22047 ft | 354 kts | 308° |
| 2026-05-04 16:39 | 52.94121 | -2.12000 | 22046 ft | 354 kts | 308° |
| 2026-05-04 16:40 | 52.97177 | -2.18348 | 22046 ft | 354 kts | 308° |
| 2026-05-04 16:40 | 53.00243 | -2.24733 | 22047 ft | 353 kts | 308° |
| 2026-05-04 16:41 | 53.03319 | -2.31163 | 22046 ft | 353 kts | 308° |
| 2026-05-04 16:41 | 53.07479 | -2.41248 | 22047 ft | 353 kts | 304° |
| 2026-05-04 16:42 | 53.11592 | -2.51387 | 22048 ft | 353 kts | 304° |
| 2026-05-04 16:43 | 53.14349 | -2.58137 | 22046 ft | 353 kts | 306° |
| 2026-05-04 16:43 | 53.17295 | -2.64637 | 22047 ft | 352 kts | 308° |
| 2026-05-04 16:43 | 53.18774 | -2.67880 | 22047 ft | 352 kts | 307° |
| 2026-05-04 16:44 | 53.24683 | -2.80956 | 22047 ft | 352 kts | 307° |
| 2026-05-04 16:45 | 53.27611 | -2.87475 | 22047 ft | 352 kts | 307° |
| 2026-05-04 16:46 | 53.32015 | -2.97324 | 22058 ft | 352 kts | 307° |
| 2026-05-04 16:46 | 53.34943 | -3.03894 | 22066 ft | 352 kts | 307° |
| 2026-05-04 16:47 | 53.37857 | -3.10453 | 22072 ft | 352 kts | 307° |
| 2026-05-04 16:47 | 53.40770 | -3.17094 | 22074 ft | 352 kts | 306° |
| 2026-05-04 16:48 | 53.45032 | -3.27122 | 22074 ft | 352 kts | 307° |
| 2026-05-04 16:48 | 53.46450 | -3.30462 | 22074 ft | 352 kts | 307° |
| 2026-05-04 16:49 | 53.49286 | -3.37151 | 22074 ft | 352 kts | 307° |
| 2026-05-04 16:49 | 53.52120 | -3.43852 | 22074 ft | 352 kts | 307° |
| 2026-05-04 16:50 | 53.54958 | -3.50576 | 22074 ft | 352 kts | 307° |
| 2026-05-04 16:50 | 53.57784 | -3.57289 | 22074 ft | 352 kts | 307° |
| 2026-05-04 16:51 | 53.60610 | -3.64039 | 22073 ft | 351 kts | 306° |
| 2026-05-04 16:51 | 53.61612 | -3.67800 | 22058 ft | 353 kts | 283° |
| 2026-05-04 16:51 | 53.62043 | -3.75997 | 22073 ft | 354 kts | 275° |
| 2026-05-04 16:52 | 53.62371 | -3.84307 | 21974 ft | 355 kts | 275° |
| 2026-05-04 16:52 | 53.62533 | -3.88410 | 21852 ft | 355 kts | 275° |
| 2026-05-04 16:53 | 53.62860 | -3.96746 | 21602 ft | 355 kts | 275° |
| 2026-05-04 16:53 | 53.63347 | -4.09220 | 21182 ft | 357 kts | 275° |
| 2026-05-04 16:54 | 53.63509 | -4.13399 | 21034 ft | 358 kts | 275° |
| 2026-05-04 16:55 | 53.64143 | -4.30170 | 20440 ft | 359 kts | 275° |
| 2026-05-04 16:55 | 53.64447 | -4.38471 | 20135 ft | 354 kts | 275° |
| 2026-05-04 16:56 | 53.64748 | -4.46801 | 19836 ft | 355 kts | 275° |
| 2026-05-04 16:56 | 53.65190 | -4.59316 | 19388 ft | 356 kts | 275° |
| 2026-05-04 16:57 | 53.65336 | -4.63506 | 19238 ft | 357 kts | 275° |
| 2026-05-04 16:57 | 53.65610 | -4.71543 | 18967 ft | 354 kts | 274° |
| 2026-05-04 16:58 | 53.66014 | -4.83759 | 18408 ft | 345 kts | 274° |
| 2026-05-04 16:58 | 53.66145 | -4.87826 | 18030 ft | 343 kts | 274° |
| 2026-05-04 16:59 | 53.66405 | -4.95859 | 17269 ft | 342 kts | 274° |
| 2026-05-04 17:00 | 53.66904 | -5.11755 | 15752 ft | 337 kts | 274° |
| 2026-05-04 17:00 | 53.67254 | -5.23509 | 14631 ft | 330 kts | 274° |
| 2026-05-04 17:01 | 53.67472 | -5.31144 | 13904 ft | 326 kts | 274° |
| 2026-05-04 17:01 | 53.67685 | -5.38741 | 13180 ft | 322 kts | 274° |
| 2026-05-04 17:02 | 53.67889 | -5.46204 | 12469 ft | 318 kts | 274° |
| 2026-05-04 17:02 | 53.67647 | -5.53571 | 11908 ft | 310 kts | 260° |
| 2026-05-04 17:03 | 53.67238 | -5.57098 | 11680 ft | 304 kts | 260° |
| 2026-05-04 17:03 | 53.66837 | -5.60530 | 11463 ft | 295 kts | 260° |
| 2026-05-04 17:03 | 53.66060 | -5.67168 | 11056 ft | 282 kts | 259° |
| 2026-05-04 17:04 | 53.65311 | -5.73613 | 10662 ft | 277 kts | 260° |
| 2026-05-04 17:04 | 53.64576 | -5.79945 | 10272 ft | 273 kts | 260° |
| 2026-05-04 17:05 | 53.63851 | -5.86182 | 9883 ft | 270 kts | 260° |
| 2026-05-04 17:05 | 53.63125 | -5.92409 | 9441 ft | 268 kts | 260° |
| 2026-05-04 17:06 | 53.62409 | -5.98521 | 9056 ft | 265 kts | 260° |
| 2026-05-04 17:06 | 53.62050 | -6.01575 | 8867 ft | 263 kts | 260° |
| 2026-05-04 17:07 | 53.61342 | -6.07579 | 8497 ft | 261 kts | 260° |
| 2026-05-04 17:07 | 53.61109 | -6.09555 | 8377 ft | 260 kts | 260° |
| 2026-05-04 17:07 | 53.60636 | -6.13540 | 8131 ft | 258 kts | 260° |
| 2026-05-04 17:07 | 53.60283 | -6.16519 | 7946 ft | 257 kts | 260° |
| 2026-05-04 17:08 | 53.59932 | -6.19465 | 7763 ft | 256 kts | 261° |
| 2026-05-04 17:08 | 53.59229 | -6.25351 | 7314 ft | 254 kts | 261° |
| 2026-05-04 17:08 | 53.58883 | -6.28232 | 7018 ft | 252 kts | 260° |
| 2026-05-04 17:09 | 53.58536 | -6.31116 | 6715 ft | 251 kts | 261° |
| 2026-05-04 17:09 | 53.58190 | -6.33990 | 6415 ft | 250 kts | 261° |
| 2026-05-04 17:09 | 53.57845 | -6.36853 | 6114 ft | 249 kts | 261° |
| 2026-05-04 17:10 | 53.57158 | -6.42531 | 5512 ft | 248 kts | 261° |
| 2026-05-04 17:10 | 53.56231 | -6.50691 | 4603 ft | 227 kts | 261° |
| 2026-05-04 17:11 | 53.55926 | -6.53257 | 4341 ft | 225 kts | 258° |
| 2026-05-04 17:11 | 53.55170 | -6.55555 | 4069 ft | 225 kts | 226° |
| 2026-05-04 17:11 | 53.52355 | -6.57594 | 3591 ft | 221 kts | 199° |
| 2026-05-04 17:12 | 53.50890 | -6.58345 | 3378 ft | 214 kts | 199° |
| 2026-05-04 17:12 | 53.48235 | -6.59452 | 3059 ft | 185 kts | 176° |
| 2026-05-04 17:13 | 53.45758 | -6.54921 | 2987 ft | 187 kts | 119° |
| 2026-05-04 17:14 | 53.44793 | -6.48774 | 2749 ft | 187 kts | 92° |
| 2026-05-04 17:14 | 53.44709 | -6.46570 | 2471 ft | 188 kts | 95° |
| 2026-05-04 17:14 | 53.44493 | -6.42388 | 1903 ft | 166 kts | 94° |
| 2026-05-04 17:15 | 53.44396 | -6.40543 | 1767 ft | 153 kts | 96° |
| 2026-05-04 17:15 | 53.44200 | -6.37038 | 1327 ft | 144 kts | 96° |
| 2026-05-04 17:16 | 53.44030 | -6.33836 | 959 ft | 133 kts | 96° |
| 2026-05-04 17:16 | 53.43779 | -6.29155 | 413 ft | 132 kts | 96° |
| 2026-05-04 17:17 | 53.43692 | -6.27600 | 260 ft | 127 kts | 96° |
| 2026-05-04 17:17 | 53.43559 | -6.25344 | 252 ft | 27 kts | 108° |
| 2026-05-04 17:18 | 53.43486 | -6.25104 | 252 ft | 19 kts | 120° |
| 2026-05-04 17:18 | 53.43381 | -6.25032 | 252 ft | 10 kts | 270° |
| 2026-05-04 17:19 | 53.43396 | -6.25339 | 252 ft | 15 kts | 275° |
| 2026-05-04 17:19 | 53.43364 | -6.25649 | 252 ft | 13 kts | 173° |
| 2026-05-04 17:20 | 53.43164 | -6.25513 | 252 ft | 17 kts | 156° |
| 2026-05-04 17:20 | 53.42930 | -6.25342 | 252 ft | 19 kts | 157° |
| 2026-05-04 17:20 | 53.42820 | -6.25257 | 252 ft | 14 kts | 141° |
| 2026-05-04 17:21 | 53.42735 | -6.24997 | 252 ft | 12 kts | 147° |
| 2026-05-04 17:21 | 53.42693 | -6.24803 | 252 ft | 10 kts | 52° |
| 2026-05-04 17:22 | 53.42759 | -6.24740 | 252 ft | 6 kts | 6° |
| 2026-05-04 17:22 | 53.42770 | -6.24740 | 252 ft | 0 kts | 3° |